sensor_id;sensor_type;location;lat;lon;timestamp;pressure;altitude;pressure_sealevel;temperature;humidity
37291;BME280;23175;-33.706;151.094;2023-04-23T00:01:47;101413.66;;;22.03;42.98
37291;BME280;23175;-33.706;151.094;2023-04-23T00:04:17;101415.28;;;20.64;46.33
37291;BME280;23175;-33.706;151.094;2023-04-23T00:06:49;101412.93;;;21.92;44.37
37291;BME280;23175;-33.706;151.094;2023-04-23T00:09:23;101413.56;;;21.19;45.49
37291;BME280;23175;-33.706;151.094;2023-04-23T00:11:54;101418.73;;;20.57;46.17
37291;BME280;23175;-33.706;151.094;2023-04-23T00:14:24;101418.07;;;15.74;52.88
37291;BME280;23175;-33.706;151.094;2023-04-23T00:16:55;101412.82;;;21.62;43.60
37291;BME280;23175;-33.706;151.094;2023-04-23T00:19:24;101420.63;;;21.27;44.13
37291;BME280;23175;-33.706;151.094;2023-04-23T00:21:54;101423.56;;;18.43;49.68
37291;BME280;23175;-33.706;151.094;2023-04-23T00:24:25;101425.50;;;18.14;50.87
37291;BME280;23175;-33.706;151.094;2023-04-23T00:26:55;101424.16;;;15.54;55.25
37291;BME280;23175;-33.706;151.094;2023-04-23T00:29:25;101428.81;;;14.61;58.43
37291;BME280;23175;-33.706;151.094;2023-04-23T00:31:55;101426.51;;;18.74;50.60
37291;BME280;23175;-33.706;151.094;2023-04-23T00:34:26;101428.70;;;14.89;57.93
37291;BME280;23175;-33.706;151.094;2023-04-23T00:36:56;101427.17;;;19.74;48.72
37291;BME280;23175;-33.706;151.094;2023-04-23T00:39:26;101424.73;;;19.68;48.76
37291;BME280;23175;-33.706;151.094;2023-04-23T00:41:56;101422.14;;;15.88;54.42
37291;BME280;23175;-33.706;151.094;2023-04-23T00:44:26;101425.98;;;20.23;48.59
37291;BME280;23175;-33.706;151.094;2023-04-23T00:46:56;101431.31;;;19.06;48.56
37291;BME280;23175;-33.706;151.094;2023-04-23T00:49:27;101430.67;;;18.56;49.97
37291;BME280;23175;-33.706;151.094;2023-04-23T00:51:57;101432.82;;;18.33;51.05
37291;BME280;23175;-33.706;151.094;2023-04-23T00:54:27;101433.39;;;16.19;56.12
37291;BME280;23175;-33.706;151.094;2023-04-23T00:56:58;101433.27;;;20.00;48.78
37291;BME280;23175;-33.706;151.094;2023-04-23T00:59:29;101431.51;;;18.10;52.01
37291;BME280;23175;-33.706;151.094;2023-04-23T01:02:00;101425.77;;;17.91;50.94
37291;BME280;23175;-33.706;151.094;2023-04-23T01:04:31;101424.79;;;17.83;52.83
37291;BME280;23175;-33.706;151.094;2023-04-23T01:07:02;101421.10;;;18.70;50.13
37291;BME280;23175;-33.706;151.094;2023-04-23T01:09:32;101418.53;;;16.96;54.36
37291;BME280;23175;-33.706;151.094;2023-04-23T01:12:03;101426.14;;;15.67;57.41
37291;BME280;23175;-33.706;151.094;2023-04-23T01:14:35;101420.83;;;15.31;58.83
37291;BME280;23175;-33.706;151.094;2023-04-23T01:17:06;101412.82;;;15.38;57.22
37291;BME280;23175;-33.706;151.094;2023-04-23T01:19:36;101410.70;;;17.72;52.97
37291;BME280;23175;-33.706;151.094;2023-04-23T01:22:10;101415.06;;;17.85;52.45
37291;BME280;23175;-33.706;151.094;2023-04-23T01:24:40;101401.70;;;18.60;47.58
37291;BME280;23175;-33.706;151.094;2023-04-23T01:27:10;101407.89;;;18.50;49.92
37291;BME280;23175;-33.706;151.094;2023-04-23T01:29:41;101413.04;;;19.07;50.45
37291;BME280;23175;-33.706;151.094;2023-04-23T01:32:11;101405.72;;;18.08;53.28
37291;BME280;23175;-33.706;151.094;2023-04-23T01:34:42;101406.50;;;16.54;56.19
37291;BME280;23175;-33.706;151.094;2023-04-23T01:37:13;101405.44;;;17.58;53.40
37291;BME280;23175;-33.706;151.094;2023-04-23T01:39:43;101401.37;;;19.61;50.01
37291;BME280;23175;-33.706;151.094;2023-04-23T01:42:13;101402.57;;;16.73;55.31
37291;BME280;23175;-33.706;151.094;2023-04-23T01:44:43;101403.09;;;19.13;51.46
37291;BME280;23175;-33.706;151.094;2023-04-23T01:47:13;101396.64;;;18.47;52.62
37291;BME280;23175;-33.706;151.094;2023-04-23T01:49:43;101398.79;;;17.90;53.37
37291;BME280;23175;-33.706;151.094;2023-04-23T01:52:14;101397.91;;;17.53;54.40
37291;BME280;23175;-33.706;151.094;2023-04-23T01:54:44;101396.25;;;16.91;55.75
37291;BME280;23175;-33.706;151.094;2023-04-23T01:57:15;101394.66;;;17.46;55.09
37291;BME280;23175;-33.706;151.094;2023-04-23T01:59:45;101390.58;;;16.09;57.07
37291;BME280;23175;-33.706;151.094;2023-04-23T02:02:15;101393.76;;;17.43;55.02
37291;BME280;23175;-33.706;151.094;2023-04-23T02:04:45;101397.85;;;19.10;52.27
37291;BME280;23175;-33.706;151.094;2023-04-23T02:07:16;101397.14;;;16.52;56.41
37291;BME280;23175;-33.706;151.094;2023-04-23T02:09:46;101389.84;;;17.80;54.77
37291;BME280;23175;-33.706;151.094;2023-04-23T02:12:17;101389.11;;;17.61;53.50
37291;BME280;23175;-33.706;151.094;2023-04-23T02:14:47;101388.97;;;15.63;58.40
37291;BME280;23175;-33.706;151.094;2023-04-23T02:17:18;101392.62;;;16.31;57.33
37291;BME280;23175;-33.706;151.094;2023-04-23T02:19:48;101391.47;;;15.34;58.95
37291;BME280;23175;-33.706;151.094;2023-04-23T02:22:19;101382.48;;;17.85;54.44
37291;BME280;23175;-33.706;151.094;2023-04-23T02:24:50;101381.08;;;15.93;58.12
37291;BME280;23175;-33.706;151.094;2023-04-23T02:27:20;101372.64;;;18.06;53.26
37291;BME280;23175;-33.706;151.094;2023-04-23T02:29:51;101371.04;;;17.11;55.60
37291;BME280;23175;-33.706;151.094;2023-04-23T02:32:21;101370.53;;;14.99;59.90
37291;BME280;23175;-33.706;151.094;2023-04-23T02:34:51;101366.63;;;17.81;54.75
37291;BME280;23175;-33.706;151.094;2023-04-23T02:37:21;101364.79;;;17.21;54.84
37291;BME280;23175;-33.706;151.094;2023-04-23T02:39:51;101358.26;;;18.60;53.12
37291;BME280;23175;-33.706;151.094;2023-04-23T02:42:21;101357.54;;;15.68;58.80
37291;BME280;23175;-33.706;151.094;2023-04-23T02:44:52;101353.23;;;18.23;54.61
37291;BME280;23175;-33.706;151.094;2023-04-23T02:47:22;101353.80;;;16.47;57.48
37291;BME280;23175;-33.706;151.094;2023-04-23T02:49:52;101348.94;;;17.76;53.31
37291;BME280;23175;-33.706;151.094;2023-04-23T02:52:22;101350.20;;;17.32;53.77
37291;BME280;23175;-33.706;151.094;2023-04-23T02:54:53;101346.24;;;19.21;51.20
37291;BME280;23175;-33.706;151.094;2023-04-23T02:57:23;101342.89;;;18.25;52.58
37291;BME280;23175;-33.706;151.094;2023-04-23T02:59:53;101346.03;;;17.74;52.84
37291;BME280;23175;-33.706;151.094;2023-04-23T03:02:24;101343.75;;;18.32;52.12
37291;BME280;23175;-33.706;151.094;2023-04-23T03:04:54;101346.16;;;19.33;50.74
37291;BME280;23175;-33.706;151.094;2023-04-23T03:07:25;101342.79;;;17.58;54.02
37291;BME280;23175;-33.706;151.094;2023-04-23T03:09:55;101337.81;;;16.56;54.49
37291;BME280;23175;-33.706;151.094;2023-04-23T03:12:25;101331.18;;;18.22;51.37
37291;BME280;23175;-33.706;151.094;2023-04-23T03:14:55;101327.01;;;16.73;54.20
37291;BME280;23175;-33.706;151.094;2023-04-23T03:17:26;101333.03;;;18.71;50.95
37291;BME280;23175;-33.706;151.094;2023-04-23T03:19:55;101331.00;;;18.21;50.78
37291;BME280;23175;-33.706;151.094;2023-04-23T03:22:25;101330.46;;;16.77;52.97
37291;BME280;23175;-33.706;151.094;2023-04-23T03:24:56;101333.47;;;16.71;53.49
37291;BME280;23175;-33.706;151.094;2023-04-23T03:27:26;101332.90;;;15.65;55.23
37291;BME280;23175;-33.706;151.094;2023-04-23T03:29:57;101330.30;;;19.69;48.76
37291;BME280;23175;-33.706;151.094;2023-04-23T03:32:27;101334.51;;;17.43;52.70
37291;BME280;23175;-33.706;151.094;2023-04-23T03:34:57;101336.75;;;18.35;51.17
37291;BME280;23175;-33.706;151.094;2023-04-23T03:37:27;101336.01;;;17.41;52.16
37291;BME280;23175;-33.706;151.094;2023-04-23T03:39:57;101334.43;;;17.21;51.01
37291;BME280;23175;-33.706;151.094;2023-04-23T03:42:28;101337.93;;;19.08;48.74
37291;BME280;23175;-33.706;151.094;2023-04-23T03:44:58;101338.40;;;19.11;48.71
37291;BME280;23175;-33.706;151.094;2023-04-23T03:47:29;101339.16;;;19.11;48.95
37291;BME280;23175;-33.706;151.094;2023-04-23T03:49:59;101341.10;;;18.42;50.56
37291;BME280;23175;-33.706;151.094;2023-04-23T03:52:29;101346.44;;;16.51;54.39
37291;BME280;23175;-33.706;151.094;2023-04-23T03:55:00;101347.73;;;16.14;55.10
37291;BME280;23175;-33.706;151.094;2023-04-23T03:57:30;101347.96;;;19.86;49.38
37291;BME280;23175;-33.706;151.094;2023-04-23T04:00:01;101348.67;;;17.45;53.11
37291;BME280;23175;-33.706;151.094;2023-04-23T04:02:31;101346.74;;;16.78;53.39
37291;BME280;23175;-33.706;151.094;2023-04-23T04:05:01;101353.06;;;18.06;51.86
37291;BME280;23175;-33.706;151.094;2023-04-23T04:07:31;101353.33;;;18.62;50.43
37291;BME280;23175;-33.706;151.094;2023-04-23T04:10:02;101352.20;;;17.22;53.02
37291;BME280;23175;-33.706;151.094;2023-04-23T04:12:33;101353.47;;;17.76;52.04
37291;BME280;23175;-33.706;151.094;2023-04-23T04:15:02;101355.44;;;18.05;51.68
37291;BME280;23175;-33.706;151.094;2023-04-23T04:17:33;101359.17;;;15.96;55.99
37291;BME280;23175;-33.706;151.094;2023-04-23T04:20:03;101360.73;;;17.01;53.91
37291;BME280;23175;-33.706;151.094;2023-04-23T04:22:34;101363.48;;;16.80;54.54
37291;BME280;23175;-33.706;151.094;2023-04-23T04:25:04;101364.47;;;16.85;54.88
37291;BME280;23175;-33.706;151.094;2023-04-23T04:27:34;101363.95;;;15.42;57.18
37291;BME280;23175;-33.706;151.094;2023-04-23T04:30:05;101364.64;;;18.39;52.18
37291;BME280;23175;-33.706;151.094;2023-04-23T04:32:35;101364.47;;;17.42;54.73
37291;BME280;23175;-33.706;151.094;2023-04-23T04:35:05;101369.26;;;18.47;53.68
37291;BME280;23175;-33.706;151.094;2023-04-23T04:37:35;101368.59;;;18.02;52.60
37291;BME280;23175;-33.706;151.094;2023-04-23T04:40:11;101367.16;;;17.73;53.22
37291;BME280;23175;-33.706;151.094;2023-04-23T04:42:41;101365.47;;;18.13;53.29
37291;BME280;23175;-33.706;151.094;2023-04-23T04:45:12;101366.80;;;18.16;53.42
37291;BME280;23175;-33.706;151.094;2023-04-23T04:47:42;101369.84;;;19.47;50.71
37291;BME280;23175;-33.706;151.094;2023-04-23T04:50:13;101369.54;;;17.77;53.40
37291;BME280;23175;-33.706;151.094;2023-04-23T04:52:43;101374.38;;;16.40;56.47
37291;BME280;23175;-33.706;151.094;2023-04-23T04:55:14;101368.91;;;17.23;53.40
37291;BME280;23175;-33.706;151.094;2023-04-23T04:57:44;101374.66;;;19.18;51.25
37291;BME280;23175;-33.706;151.094;2023-04-23T05:00:23;101374.67;;;18.72;52.07
37291;BME280;23175;-33.706;151.094;2023-04-23T05:02:55;101375.23;;;19.01;49.90
37291;BME280;23175;-33.706;151.094;2023-04-23T05:05:27;101373.85;;;18.12;51.21
37291;BME280;23175;-33.706;151.094;2023-04-23T05:07:57;101378.87;;;18.90;49.24
37291;BME280;23175;-33.706;151.094;2023-04-23T05:10:27;101376.29;;;18.80;50.86
37291;BME280;23175;-33.706;151.094;2023-04-23T05:12:58;101378.08;;;18.40;50.46
37291;BME280;23175;-33.706;151.094;2023-04-23T05:15:29;101376.49;;;18.59;48.69
37291;BME280;23175;-33.706;151.094;2023-04-23T05:18:01;101377.69;;;16.90;51.26
37291;BME280;23175;-33.706;151.094;2023-04-23T05:20:31;101379.73;;;17.62;49.22
37291;BME280;23175;-33.706;151.094;2023-04-23T05:23:01;101376.05;;;18.45;45.58
37291;BME280;23175;-33.706;151.094;2023-04-23T05:25:36;101375.79;;;18.44;43.04
37291;BME280;23175;-33.706;151.094;2023-04-23T05:28:06;101377.72;;;19.86;42.52
37291;BME280;23175;-33.706;151.094;2023-04-23T05:30:36;101369.54;;;16.78;45.77
37291;BME280;23175;-33.706;151.094;2023-04-23T05:33:07;101374.47;;;18.34;44.18
37291;BME280;23175;-33.706;151.094;2023-04-23T05:35:37;101373.44;;;17.40;47.09
37291;BME280;23175;-33.706;151.094;2023-04-23T05:38:08;101373.59;;;18.29;45.00
37291;BME280;23175;-33.706;151.094;2023-04-23T05:40:38;101373.39;;;16.88;48.12
37291;BME280;23175;-33.706;151.094;2023-04-23T05:43:08;101375.26;;;19.65;44.36
37291;BME280;23175;-33.706;151.094;2023-04-23T05:45:38;101375.32;;;17.61;47.98
37291;BME280;23175;-33.706;151.094;2023-04-23T05:48:09;101373.64;;;19.31;45.28
37291;BME280;23175;-33.706;151.094;2023-04-23T05:50:39;101373.86;;;19.50;45.91
37291;BME280;23175;-33.706;151.094;2023-04-23T05:53:10;101374.07;;;17.44;48.40
37291;BME280;23175;-33.706;151.094;2023-04-23T05:55:40;101377.92;;;16.53;51.60
37291;BME280;23175;-33.706;151.094;2023-04-23T05:58:10;101378.70;;;16.54;51.26
37291;BME280;23175;-33.706;151.094;2023-04-23T06:00:41;101381.47;;;17.99;49.44
37291;BME280;23175;-33.706;151.094;2023-04-23T06:03:11;101377.95;;;17.51;49.86
37291;BME280;23175;-33.706;151.094;2023-04-23T06:05:42;101385.52;;;17.65;49.38
37291;BME280;23175;-33.706;151.094;2023-04-23T06:08:12;101385.55;;;17.43;50.24
37291;BME280;23175;-33.706;151.094;2023-04-23T06:10:43;101388.88;;;18.83;48.17
37291;BME280;23175;-33.706;151.094;2023-04-23T06:13:12;101389.53;;;19.25;47.87
37291;BME280;23175;-33.706;151.094;2023-04-23T06:15:42;101390.89;;;17.53;49.99
37291;BME280;23175;-33.706;151.094;2023-04-23T06:18:12;101394.18;;;19.61;46.96
37291;BME280;23175;-33.706;151.094;2023-04-23T06:20:43;101395.91;;;18.81;48.74
37291;BME280;23175;-33.706;151.094;2023-04-23T06:23:13;101400.75;;;18.89;47.15
37291;BME280;23175;-33.706;151.094;2023-04-23T06:25:44;101397.77;;;18.19;49.16
37291;BME280;23175;-33.706;151.094;2023-04-23T06:28:14;101398.75;;;17.53;51.14
37291;BME280;23175;-33.706;151.094;2023-04-23T06:30:44;101403.63;;;18.32;49.41
37291;BME280;23175;-33.706;151.094;2023-04-23T06:33:15;101401.47;;;19.15;47.76
37291;BME280;23175;-33.706;151.094;2023-04-23T06:35:45;101403.40;;;17.32;50.75
37291;BME280;23175;-33.706;151.094;2023-04-23T06:38:15;101406.30;;;19.30;46.62
37291;BME280;23175;-33.706;151.094;2023-04-23T06:40:45;101405.15;;;20.00;46.04
37291;BME280;23175;-33.706;151.094;2023-04-23T06:43:15;101403.43;;;16.67;50.31
37291;BME280;23175;-33.706;151.094;2023-04-23T06:45:45;101406.73;;;15.76;53.55
37291;BME280;23175;-33.706;151.094;2023-04-23T06:48:21;101407.19;;;18.05;49.61
37291;BME280;23175;-33.706;151.094;2023-04-23T06:50:51;101405.97;;;18.73;48.21
37291;BME280;23175;-33.706;151.094;2023-04-23T06:53:22;101406.53;;;18.60;47.88
37291;BME280;23175;-33.706;151.094;2023-04-23T06:55:52;101410.07;;;18.48;48.38
37291;BME280;23175;-33.706;151.094;2023-04-23T06:58:22;101410.95;;;19.54;46.67
37291;BME280;23175;-33.706;151.094;2023-04-23T07:00:52;101412.11;;;17.35;49.99
37291;BME280;23175;-33.706;151.094;2023-04-23T07:03:22;101415.21;;;18.72;48.33
37291;BME280;23175;-33.706;151.094;2023-04-23T07:05:53;101417.49;;;19.50;47.38
37291;BME280;23175;-33.706;151.094;2023-04-23T07:08:23;101414.30;;;18.12;48.69
37291;BME280;23175;-33.706;151.094;2023-04-23T07:10:53;101415.25;;;19.51;46.83
37291;BME280;23175;-33.706;151.094;2023-04-23T07:13:24;101419.63;;;19.86;46.35
37291;BME280;23175;-33.706;151.094;2023-04-23T07:15:54;101416.45;;;18.43;48.39
37291;BME280;23175;-33.706;151.094;2023-04-23T07:18:24;101418.32;;;18.79;48.14
37291;BME280;23175;-33.706;151.094;2023-04-23T07:20:54;101420.13;;;18.73;47.50
37291;BME280;23175;-33.706;151.094;2023-04-23T07:23:25;101416.53;;;17.28;50.62
37291;BME280;23175;-33.706;151.094;2023-04-23T07:25:55;101423.72;;;18.05;48.96
37291;BME280;23175;-33.706;151.094;2023-04-23T07:28:25;101427.80;;;17.64;49.86
37291;BME280;23175;-33.706;151.094;2023-04-23T07:30:55;101429.95;;;16.10;52.38
37291;BME280;23175;-33.706;151.094;2023-04-23T07:33:25;101432.83;;;18.11;48.90
37291;BME280;23175;-33.706;151.094;2023-04-23T07:35:55;101438.30;;;17.02;52.08
37291;BME280;23175;-33.706;151.094;2023-04-23T07:38:25;101438.45;;;18.06;49.70
37291;BME280;23175;-33.706;151.094;2023-04-23T07:40:56;101443.91;;;17.94;50.11
37291;BME280;23175;-33.706;151.094;2023-04-23T07:43:25;101441.69;;;17.32;51.66
37291;BME280;23175;-33.706;151.094;2023-04-23T07:45:56;101448.68;;;16.93;51.75
37291;BME280;23175;-33.706;151.094;2023-04-23T07:48:26;101450.60;;;17.01;52.79
37291;BME280;23175;-33.706;151.094;2023-04-23T07:50:56;101450.15;;;18.33;49.17
37291;BME280;23175;-33.706;151.094;2023-04-23T07:53:27;101452.79;;;16.32;53.13
37291;BME280;23175;-33.706;151.094;2023-04-23T07:55:57;101456.75;;;15.65;54.89
37291;BME280;23175;-33.706;151.094;2023-04-23T07:58:27;101459.28;;;16.42;53.46
37291;BME280;23175;-33.706;151.094;2023-04-23T08:00:57;101459.30;;;16.91;52.48
37291;BME280;23175;-33.706;151.094;2023-04-23T08:03:29;101457.68;;;18.92;49.54
37291;BME280;23175;-33.706;151.094;2023-04-23T08:05:59;101459.94;;;18.21;50.46
37291;BME280;23175;-33.706;151.094;2023-04-23T08:08:29;101463.32;;;16.84;52.41
37291;BME280;23175;-33.706;151.094;2023-04-23T08:10:59;101463.85;;;17.76;51.40
37291;BME280;23175;-33.706;151.094;2023-04-23T08:13:29;101466.82;;;16.22;53.71
37291;BME280;23175;-33.706;151.094;2023-04-23T08:22:02;101473.90;;;17.02;52.56
37291;BME280;23175;-33.706;151.094;2023-04-23T08:24:31;101476.34;;;17.07;52.52
37291;BME280;23175;-33.706;151.094;2023-04-23T08:27:01;101478.58;;;18.31;49.74
37291;BME280;23175;-33.706;151.094;2023-04-23T08:29:32;101480.14;;;19.38;47.79
37291;BME280;23175;-33.706;151.094;2023-04-23T08:32:02;101476.30;;;18.25;48.39
37291;BME280;23175;-33.706;151.094;2023-04-23T08:34:32;101480.24;;;18.81;47.52
37291;BME280;23175;-33.706;151.094;2023-04-23T08:37:01;101481.12;;;17.31;50.15
37291;BME280;23175;-33.706;151.094;2023-04-23T08:39:33;101483.21;;;19.23;47.82
37291;BME280;23175;-33.706;151.094;2023-04-23T08:42:10;101481.46;;;17.82;48.81
37291;BME280;23175;-33.706;151.094;2023-04-23T08:44:47;101484.39;;;16.08;51.52
37291;BME280;23175;-33.706;151.094;2023-04-23T08:47:18;101478.80;;;17.94;49.35
37291;BME280;23175;-33.706;151.094;2023-04-23T08:49:54;101482.62;;;16.74;50.48
37291;BME280;23175;-33.706;151.094;2023-04-23T08:52:25;101484.09;;;17.70;49.15
37291;BME280;23175;-33.706;151.094;2023-04-23T08:55:00;101483.94;;;17.62;48.34
37291;BME280;23175;-33.706;151.094;2023-04-23T08:57:31;101487.24;;;19.85;45.61
37291;BME280;23175;-33.706;151.094;2023-04-23T09:00:04;101490.03;;;18.61;47.21
37291;BME280;23175;-33.706;151.094;2023-04-23T09:02:34;101490.88;;;17.59;48.80
37291;BME280;23175;-33.706;151.094;2023-04-23T09:05:05;101492.55;;;17.69;49.96
37291;BME280;23175;-33.706;151.094;2023-04-23T09:07:36;101495.13;;;18.09;48.03
37291;BME280;23175;-33.706;151.094;2023-04-23T09:10:07;101495.79;;;16.07;51.60
37291;BME280;23175;-33.706;151.094;2023-04-23T09:12:40;101491.57;;;17.92;48.51
37291;BME280;23175;-33.706;151.094;2023-04-23T09:15:11;101493.78;;;20.20;45.86
37291;BME280;23175;-33.706;151.094;2023-04-23T09:17:42;101497.18;;;16.86;49.65
37291;BME280;23175;-33.706;151.094;2023-04-23T09:20:13;101492.40;;;18.08;49.61
37291;BME280;23175;-33.706;151.094;2023-04-23T09:22:45;101495.90;;;17.70;49.14
37291;BME280;23175;-33.706;151.094;2023-04-23T09:25:16;101501.37;;;18.27;48.34
37291;BME280;23175;-33.706;151.094;2023-04-23T09:27:48;101505.44;;;19.30;48.19
37291;BME280;23175;-33.706;151.094;2023-04-23T09:30:18;101503.10;;;18.54;48.68
37291;BME280;23175;-33.706;151.094;2023-04-23T09:32:48;101507.67;;;17.46;52.98
37291;BME280;23175;-33.706;151.094;2023-04-23T09:35:20;101506.02;;;17.32;53.38
37291;BME280;23175;-33.706;151.094;2023-04-23T09:37:52;101503.39;;;18.89;51.64
37291;BME280;23175;-33.706;151.094;2023-04-23T09:40:24;101501.86;;;18.95;50.55
37291;BME280;23175;-33.706;151.094;2023-04-23T09:42:55;101500.37;;;18.44;51.29
37291;BME280;23175;-33.706;151.094;2023-04-23T09:45:26;101502.42;;;18.00;53.20
37291;BME280;23175;-33.706;151.094;2023-04-23T09:47:58;101509.31;;;16.52;54.95
37291;BME280;23175;-33.706;151.094;2023-04-23T09:50:36;101507.00;;;17.67;53.77
37291;BME280;23175;-33.706;151.094;2023-04-23T09:57:18;101507.10;;;19.16;51.41
37291;BME280;23175;-33.706;151.094;2023-04-23T09:59:48;101510.01;;;18.24;53.03
37291;BME280;23175;-33.706;151.094;2023-04-23T10:02:18;101510.91;;;19.69;50.81
37291;BME280;23175;-33.706;151.094;2023-04-23T10:04:52;101512.01;;;19.16;51.10
37291;BME280;23175;-33.706;151.094;2023-04-23T10:07:22;101509.44;;;18.73;51.32
37291;BME280;23175;-33.706;151.094;2023-04-23T10:09:52;101511.86;;;19.33;50.23
37291;BME280;23175;-33.706;151.094;2023-04-23T10:12:23;101512.30;;;19.51;49.76
37291;BME280;23175;-33.706;151.094;2023-04-23T10:14:53;101508.77;;;19.97;49.21
37291;BME280;23175;-33.706;151.094;2023-04-23T10:17:24;101511.31;;;20.12;49.02
37291;BME280;23175;-33.706;151.094;2023-04-23T10:19:55;101510.80;;;19.48;50.26
37291;BME280;23175;-33.706;151.094;2023-04-23T10:22:29;101505.18;;;19.32;50.49
37291;BME280;23175;-33.706;151.094;2023-04-23T10:25:03;101508.77;;;18.98;51.46
37291;BME280;23175;-33.706;151.094;2023-04-23T10:27:36;101503.80;;;18.94;52.36
37291;BME280;23175;-33.706;151.094;2023-04-23T10:30:08;101503.88;;;20.43;49.40
37291;BME280;23175;-33.706;151.094;2023-04-23T10:32:39;101507.84;;;18.90;51.28
37291;BME280;23175;-33.706;151.094;2023-04-23T10:35:10;101513.48;;;19.52;51.33
37291;BME280;23175;-33.706;151.094;2023-04-23T10:37:40;101512.02;;;19.75;50.34
37291;BME280;23175;-33.706;151.094;2023-04-23T10:40:13;101512.89;;;18.91;51.50
37291;BME280;23175;-33.706;151.094;2023-04-23T10:42:44;101523.21;;;16.68;55.82
37291;BME280;23175;-33.706;151.094;2023-04-23T10:45:15;101525.98;;;18.69;52.92
37291;BME280;23175;-33.706;151.094;2023-04-23T10:47:45;101532.16;;;18.63;52.65
37291;BME280;23175;-33.706;151.094;2023-04-23T10:50:24;101536.89;;;16.75;57.24
37291;BME280;23175;-33.706;151.094;2023-04-23T10:52:56;101536.57;;;17.10;56.71
37291;BME280;23175;-33.706;151.094;2023-04-23T10:55:27;101539.18;;;18.95;52.91
37291;BME280;23175;-33.706;151.094;2023-04-23T10:57:59;101536.63;;;18.57;53.71
37291;BME280;23175;-33.706;151.094;2023-04-23T11:00:41;101540.23;;;17.78;55.69
37291;BME280;23175;-33.706;151.094;2023-04-23T11:03:30;101545.70;;;19.46;52.07
37291;BME280;23175;-33.706;151.094;2023-04-23T11:06:03;101549.94;;;19.33;52.44
37291;BME280;23175;-33.706;151.094;2023-04-23T11:08:35;101550.85;;;19.44;52.28
37291;BME280;23175;-33.706;151.094;2023-04-23T11:11:08;101561.34;;;15.46;59.53
37291;BME280;23175;-33.706;151.094;2023-04-23T11:13:52;101554.40;;;18.38;54.77
37291;BME280;23175;-33.706;151.094;2023-04-23T11:16:23;101560.25;;;14.90;61.78
37291;BME280;23175;-33.706;151.094;2023-04-23T11:18:58;101556.16;;;18.58;54.87
37291;BME280;23175;-33.706;151.094;2023-04-23T11:22:17;101555.50;;;18.25;55.15
37291;BME280;23175;-33.706;151.094;2023-04-23T11:24:47;101555.07;;;18.51;54.52
37291;BME280;23175;-33.706;151.094;2023-04-23T11:27:18;101551.31;;;17.56;56.14
37291;BME280;23175;-33.706;151.094;2023-04-23T11:29:49;101557.97;;;17.09;58.25
37291;BME280;23175;-33.706;151.094;2023-04-23T11:32:19;101557.59;;;18.77;52.81
37291;BME280;23175;-33.706;151.094;2023-04-23T11:34:51;101562.42;;;16.74;58.43
37291;BME280;23175;-33.706;151.094;2023-04-23T11:37:21;101562.47;;;17.54;57.38
37291;BME280;23175;-33.706;151.094;2023-04-23T11:39:52;101566.35;;;16.67;58.87
37291;BME280;23175;-33.706;151.094;2023-04-23T11:42:22;101567.72;;;16.79;58.84
37291;BME280;23175;-33.706;151.094;2023-04-23T11:44:53;101568.39;;;17.00;56.44
37291;BME280;23175;-33.706;151.094;2023-04-23T11:47:26;101564.10;;;18.54;54.08
37291;BME280;23175;-33.706;151.094;2023-04-23T11:49:56;101563.02;;;18.50;51.69
37291;BME280;23175;-33.706;151.094;2023-04-23T11:52:27;101567.89;;;15.42;59.68
37291;BME280;23175;-33.706;151.094;2023-04-23T11:55:02;101563.27;;;17.09;56.88
37291;BME280;23175;-33.706;151.094;2023-04-23T11:57:39;101561.92;;;18.05;54.34
37291;BME280;23175;-33.706;151.094;2023-04-23T12:00:15;101561.84;;;17.17;55.50
37291;BME280;23175;-33.706;151.094;2023-04-23T12:18:40;101576.05;;;13.61;64.58
37291;BME280;23175;-33.706;151.094;2023-04-23T12:21:11;101571.70;;;16.31;60.16
37291;BME280;23175;-33.706;151.094;2023-04-23T12:23:42;101568.11;;;16.74;59.31
37291;BME280;23175;-33.706;151.094;2023-04-23T12:26:14;101564.55;;;18.04;56.60
37291;BME280;23175;-33.706;151.094;2023-04-23T12:28:50;101567.30;;;16.67;57.39
37291;BME280;23175;-33.706;151.094;2023-04-23T12:31:21;101571.27;;;17.48;58.43
37291;BME280;23175;-33.706;151.094;2023-04-23T12:33:57;101565.45;;;17.91;56.97
37291;BME280;23175;-33.706;151.094;2023-04-23T12:36:31;101564.56;;;16.47;58.76
37291;BME280;23175;-33.706;151.094;2023-04-23T12:39:34;101565.82;;;14.04;63.91
37291;BME280;23175;-33.706;151.094;2023-04-23T12:42:05;101560.49;;;17.77;56.40
37291;BME280;23175;-33.706;151.094;2023-04-23T12:44:37;101559.41;;;17.26;57.61
37291;BME280;23175;-33.706;151.094;2023-04-23T12:47:08;101559.11;;;17.38;58.80
37291;BME280;23175;-33.706;151.094;2023-04-23T12:49:39;101555.09;;;16.74;58.77
37291;BME280;23175;-33.706;151.094;2023-04-23T12:52:10;101551.20;;;18.69;54.89
37291;BME280;23175;-33.706;151.094;2023-04-23T12:54:40;101555.29;;;17.20;56.91
37291;BME280;23175;-33.706;151.094;2023-04-23T12:57:12;101555.44;;;18.97;53.93
37291;BME280;23175;-33.706;151.094;2023-04-23T12:59:42;101554.98;;;17.42;56.71
37291;BME280;23175;-33.706;151.094;2023-04-23T13:02:12;101554.96;;;18.94;54.15
37291;BME280;23175;-33.706;151.094;2023-04-23T13:04:42;101553.57;;;16.17;58.11
37291;BME280;23175;-33.706;151.094;2023-04-23T13:07:13;101548.31;;;17.62;56.83